VVTS

Ho Chi Minh City International Airport

Airport
ICAO code
VVTS
IATA Code
SGN
Summary
ICAO Region
APAC
ICAO Territory
Location

Ho Chi Minh City, Ho Chi Minh City

Serving
Ho Chi Minh City
Elevation
33 ft
Coordinates
10° 49' 14" N , 106° 39' 39" E
KCC
Metar
VVTS 270430Z 30004KT 250V020 9999 BKN020 36/25 Q1008 NOSIG

Description

International airport serving Ho Chi Minh City, Vietnam.

Climatology

Tropical savannah climate (Köppen climate classification Aw)

Airport map

Aerial View

SKYbrary Partners:

Safety knowledge contributed by: